Time;durP1;ratioP1;P1;durP2;ratioP2;P2;SDS_P1;SDS_P2;PMS_P1;PMS_P2;Temp;Humidity;BMP_temperature;BMP_pressure;BME280_temperature;BME280_humidity;BME280_pressure;Samples;Min_cycle;Max_cycle;Signal;HPM_P1;HPM_P2
2022/04/16 00:01:04;;;;;;;25.50;15.88;;;7.30;99.90;;;;;;4860581;29;20060;-82
2022/04/16 00:03:31;;;;;;;27.42;16.15;;;7.40;99.90;;;;;;4860877;29;20057;-84
2022/04/16 00:05:57;;;;;;;23.55;17.42;;;7.20;99.90;;;;;;4860609;29;20101;-83
2022/04/16 00:08:25;;;;;;;24.63;16.67;;;7.40;99.90;;;;;;4861529;29;20540;-83
2022/04/16 00:10:52;;;;;;;28.83;17.15;;;7.10;99.90;;;;;;4859595;29;20083;-83
2022/04/16 00:13:19;;;;;;;27.30;18.48;;;7.00;99.90;;;;;;4876963;29;20097;-83
2022/04/16 00:15:49;;;;;;;29.13;17.67;;;6.90;99.90;;;;;;4859753;29;20095;-83
2022/04/16 00:18:15;;;;;;;26.92;17.17;;;6.90;99.90;;;;;;4860423;29;20081;-83
2022/04/16 00:20:41;;;;;;;26.40;18.58;;;6.80;99.90;;;;;;4861120;29;20037;-83
2022/04/16 00:23:07;;;;;;;27.65;17.45;;;7.30;99.90;;;;;;4860983;29;20059;-82
2022/04/16 00:25:34;;;;;;;24.08;18.25;;;6.70;99.90;;;;;;4860207;29;20045;-83
2022/04/16 00:28:01;;;;;;;28.70;19.00;;;6.70;99.90;;;;;;4860615;29;20053;-83
2022/04/16 00:30:27;;;;;;;29.17;18.23;;;6.90;99.90;;;;;;4860052;29;20041;-83
2022/04/16 00:32:55;;;;;;;32.35;18.23;;;6.60;99.90;;;;;;4859389;29;20063;-83
2022/04/16 00:35:22;;;;;;;27.90;18.25;;;6.60;99.90;;;;;;4860880;29;20056;-83
2022/04/16 00:37:48;;;;;;;34.10;19.08;;;6.50;99.90;;;;;;4859954;29;20041;-83
2022/04/16 00:40:13;;;;;;;26.83;17.35;;;6.50;99.90;;;;;;4860211;29;20053;-83
2022/04/16 00:42:44;;;;;;;27.60;18.70;;;6.50;99.90;;;;;;4861270;29;20512;-83
2022/04/16 00:45:10;;;;;;;28.80;18.73;;;6.50;99.90;;;;;;4859765;29;20108;-82
2022/04/16 00:47:36;;;;;;;27.90;18.77;;;6.50;99.90;;;;;;4875483;29;20144;-81
2022/04/16 00:50:04;;;;;;;26.02;17.60;;;6.50;99.90;;;;;;4859970;29;20128;-82
2022/04/16 00:52:30;;;;;;;26.00;16.25;;;6.50;99.90;;;;;;4860036;29;20105;-81
2022/04/16 00:54:56;;;;;;;20.65;15.52;;;6.50;99.90;;;;;;4859470;29;20037;-82
2022/04/16 00:57:23;;;;;;;23.30;17.13;;;6.40;99.90;;;;;;4860768;29;20494;-81
2022/04/16 00:59:49;;;;;;;26.60;17.38;;;6.50;99.90;;;;;;4858511;29;20045;-80
2022/04/16 01:02:15;;;;;;;33.15;20.42;;;6.40;99.90;;;;;;4859909;29;20101;-81
2022/04/16 01:04:40;;;;;;;29.95;19.63;;;6.30;99.90;;;;;;4860504;29;20120;-81
2022/04/16 01:07:07;;;;;;;28.83;19.83;;;6.40;99.90;;;;;;4858740;29;20048;-81
2022/04/16 01:09:33;;;;;;;30.40;19.42;;;6.50;99.90;;;;;;4860144;29;20049;-81
2022/04/16 01:11:59;;;;;;;27.48;20.33;;;6.60;99.90;;;;;;4859709;29;20061;-81
2022/04/16 01:14:26;;;;;;;30.05;19.88;;;6.60;99.90;;;;;;4859091;29;20053;-81
2022/04/16 01:16:55;;;;;;;30.70;19.20;;;6.70;99.90;;;;;;4860014;29;20080;-82
2022/04/16 01:19:21;;;;;;;30.92;19.40;;;7.00;99.90;;;;;;4860109;29;20053;-83
2022/04/16 01:21:47;;;;;;;31.70;19.77;;;6.80;99.90;;;;;;4875157;29;20088;-82
2022/04/16 01:24:14;;;;;;;30.15;19.50;;;6.80;99.90;;;;;;4860327;29;20049;-82
2022/04/16 01:26:41;;;;;;;30.55;19.85;;;6.80;99.90;;;;;;4860785;29;20077;-81
2022/04/16 01:29:08;;;;;;;28.95;19.33;;;6.80;99.90;;;;;;4858287;29;20577;-81
2022/04/16 01:31:34;;;;;;;32.25;20.05;;;6.90;99.90;;;;;;4861370;29;20198;-82
2022/04/16 01:34:00;;;;;;;31.63;20.08;;;6.80;99.90;;;;;;4859608;29;20914;-81
2022/04/16 01:36:31;;;;;;;33.65;21.52;;;7.40;99.90;;;;;;4859517;29;20049;-81
2022/04/16 01:38:58;;;;;;;32.35;21.95;;;6.90;99.90;;;;;;4859267;29;20185;-81
2022/04/16 01:41:25;;;;;;;32.42;21.67;;;6.90;99.90;;;;;;4875128;29;20140;-81
2022/04/16 01:43:51;;;;;;;40.88;22.45;;;7.30;99.90;;;;;;4857952;29;20417;-81
2022/04/16 01:46:17;;;;;;;34.10;21.70;;;7.60;99.90;;;;;;4859224;29;20185;-82
2022/04/16 01:48:43;;;;;;;34.92;22.95;;;7.00;99.90;;;;;;4859389;29;20053;-81
2022/04/16 01:51:09;;;;;;;37.08;23.35;;;6.90;99.90;;;;;;4858796;29;20123;-83
2022/04/16 01:53:35;;;;;;;33.28;22.55;;;6.90;99.90;;;;;;4859404;29;20053;-83
2022/04/16 01:56:00;;;;;;;39.05;25.15;;;7.20;99.90;;;;;;4858379;29;20184;-83
2022/04/16 01:58:26;;;;;;;36.88;24.02;;;7.30;99.90;;;;;;4859111;29;20131;-82
2022/04/16 02:00:52;;;;;;;39.28;24.35;;;6.80;99.90;;;;;;4858497;29;20065;-82
2022/04/16 02:03:19;;;;;;;37.17;25.13;;;6.80;99.90;;;;;;4859214;29;20049;-81
2022/04/16 02:05:45;;;;;;;40.75;26.38;;;6.80;99.90;;;;;;4858768;29;20041;-81
2022/04/16 02:08:11;;;;;;;36.30;24.40;;;7.20;99.90;;;;;;4859605;29;20496;-82
2022/04/16 02:10:37;;;;;;;43.17;27.77;;;6.80;99.90;;;;;;4857891;29;20416;-82
2022/04/16 02:13:02;;;;;;;44.28;27.95;;;7.00;99.90;;;;;;4859197;29;20080;-82
2022/04/16 02:15:29;;;;;;;47.95;29.52;;;6.90;99.90;;;;;;4858363;29;20064;-82
2022/04/16 02:17:56;;;;;;;43.75;27.88;;;6.90;99.90;;;;;;4857774;29;20056;-82
2022/04/16 02:20:23;;;;;;;41.42;27.80;;;7.10;99.90;;;;;;4859154;29;20391;-81
2022/04/16 02:22:49;;;;;;;45.55;28.52;;;7.10;99.90;;;;;;4857861;29;20052;-82
2022/04/16 02:25:18;;;;;;;40.85;25.38;;;7.20;99.90;;;;;;4857888;29;20041;-82
2022/04/16 02:27:43;;;;;;;39.47;25.40;;;7.20;99.90;;;;;;4858690;29;20049;-82
2022/04/16 02:30:14;;;;;;;38.13;24.67;;;7.50;99.90;;;;;;4857619;29;20099;-82
2022/04/16 02:32:44;;;;;;;36.63;24.58;;;7.30;99.90;;;;;;4858237;29;20056;-83
2022/04/16 02:35:13;;;;;;;35.08;22.98;;;7.40;99.90;;;;;;4858814;29;20055;-82
2022/04/16 02:37:39;;;;;;;32.90;22.35;;;7.40;99.90;;;;;;4858670;29;20093;-82
2022/04/16 02:40:06;;;;;;;36.30;22.92;;;7.50;99.90;;;;;;4857682;29;20272;-82
2022/04/16 02:42:37;;;;;;;32.42;22.80;;;7.50;99.90;;;;;;4858475;29;20084;-82
2022/04/16 02:47:51;;;;;;;32.65;23.08;;;7.60;99.90;;;;;;4858497;29;20129;-82
2022/04/16 02:50:17;;;;;;;32.53;22.48;;;8.30;99.90;;;;;;4858012;29;20041;-82
2022/04/16 02:52:44;;;;;;;30.63;22.23;;;7.60;99.90;;;;;;4858428;29;20488;-82
2022/04/16 02:55:10;;;;;;;36.47;23.33;;;7.70;99.90;;;;;;4857909;29;20424;-82
2022/04/16 02:57:35;;;;;;;34.58;24.63;;;7.70;99.90;;;;;;4873813;29;20049;-82
2022/04/16 03:00:01;;;;;;;31.45;23.35;;;7.70;99.90;;;;;;4856458;29;20041;-82
2022/04/16 03:02:27;;;;;;;36.13;24.05;;;7.70;99.90;;;;;;4858527;29;20045;-82
2022/04/16 03:04:54;;;;;;;35.60;25.38;;;7.80;99.90;;;;;;4857675;29;20549;-82
2022/04/16 03:07:20;;;;;;;37.20;26.75;;;8.10;99.90;;;;;;4857195;29;20049;-82
2022/04/16 03:09:45;;;;;;;36.90;25.90;;;7.70;99.90;;;;;;4858045;29;20055;-81
2022/04/16 03:12:11;;;;;;;38.80;27.42;;;8.00;99.90;;;;;;4858230;29;20085;-82
2022/04/16 03:17:33;;;;;;;37.88;26.42;;;8.20;99.90;;;;;;4858411;29;20063;-82
2022/04/16 03:20:00;;;;;;;39.15;27.60;;;7.80;99.90;;;;;;4842019;29;20052;-82
2022/04/16 03:22:25;;;;;;;40.17;28.52;;;7.80;99.90;;;;;;4857913;29;20553;-82
2022/04/16 03:24:51;;;;;;;42.88;28.52;;;7.70;99.90;;;;;;4857237;29;20053;-82
2022/04/16 03:27:17;;;;;;;45.85;30.08;;;7.70;99.90;;;;;;4857421;29;20037;-81
2022/04/16 03:29:42;;;;;;;47.15;31.08;;;8.10;99.90;;;;;;4857673;29;20041;-82
2022/04/16 03:32:08;;;;;;;37.20;28.63;;;7.70;99.90;;;;;;4857244;29;20080;-81
2022/04/16 03:34:34;;;;;;;41.83;28.35;;;7.70;99.90;;;;;;4856413;29;20053;-82
2022/04/16 03:37:00;;;;;;;43.33;30.48;;;8.10;99.90;;;;;;4857395;29;20040;-82
2022/04/16 03:39:25;;;;;;;42.15;28.58;;;7.70;99.90;;;;;;4842340;29;20529;-82
2022/04/16 03:41:51;;;;;;;40.28;27.30;;;7.60;99.90;;;;;;4856769;29;20044;-81
2022/04/16 03:44:17;;;;;;;39.13;28.92;;;7.60;99.90;;;;;;4857036;29;20124;-81
2022/04/16 03:46:43;;;;;;;40.50;29.08;;;7.60;99.90;;;;;;4857828;29;20049;-81
2022/04/16 03:49:09;;;;;;;43.88;29.67;;;7.60;99.90;;;;;;4856438;29;20052;-81
2022/04/16 03:51:34;;;;;;;42.53;28.55;;;7.60;99.90;;;;;;4858392;29;20053;-81
2022/04/16 03:59:59;;;;;;;44.05;28.70;;;7.60;99.90;;;;;;4857174;29;20091;-81
2022/04/16 04:02:14;;;;;;;46.05;31.63;;;7.90;99.90;;;;;;4857300;29;20060;-81
2022/04/16 04:04:40;;;;;;;46.95;31.48;;;7.80;99.90;;;;;;4857021;29;20053;-80
2022/04/16 04:07:06;;;;;;;46.05;32.33;;;7.50;99.90;;;;;;4857414;29;20497;-81
2022/04/16 04:09:32;;;;;;;49.95;34.25;;;7.40;99.90;;;;;;4856854;29;20055;-81
2022/04/16 04:11:57;;;;;;;48.17;33.33;;;7.40;99.90;;;;;;4857214;29;20368;-81
2022/04/16 04:14:23;;;;;;;49.25;34.38;;;7.30;99.90;;;;;;4856629;29;20053;-81
2022/04/16 04:16:49;;;;;;;49.15;32.67;;;7.30;99.90;;;;;;4856804;29;20051;-81
2022/04/16 04:19:14;;;;;;;46.28;32.90;;;7.30;99.90;;;;;;4857763;29;20084;-82
2022/04/16 04:21:40;;;;;;;49.42;33.85;;;7.60;99.90;;;;;;4857636;29;20049;-81
2022/04/16 04:24:05;;;;;;;50.28;34.80;;;7.30;99.90;;;;;;4856730;29;20045;-81
2022/04/16 04:26:31;;;;;;;46.22;32.33;;;7.30;99.90;;;;;;4857470;29;20525;-81
2022/04/16 04:28:57;;;;;;;48.20;33.47;;;7.30;99.90;;;;;;4856590;29;20497;-82
2022/04/16 04:31:22;;;;;;;46.33;32.60;;;7.70;99.90;;;;;;4857020;29;20394;-81
2022/04/16 04:33:48;;;;;;;47.03;33.55;;;7.30;99.90;;;;;;4856520;29;20056;-82
2022/04/16 04:36:14;;;;;;;43.38;31.30;;;7.20;99.90;;;;;;4842389;29;20079;-81
2022/04/16 04:38:39;;;;;;;42.47;31.08;;;7.30;99.90;;;;;;4856692;29;20081;-81
2022/04/16 04:41:07;;;;;;;41.95;29.65;;;7.20;99.90;;;;;;4841525;29;20118;-81
2022/04/16 04:43:33;;;;;;;39.20;28.13;;;7.20;99.90;;;;;;4857657;29;20493;-81
2022/04/16 04:45:58;;;;;;;41.28;27.65;;;7.70;99.90;;;;;;4858005;29;20132;-81
2022/04/16 04:48:24;;;;;;;43.72;28.77;;;7.20;99.90;;;;;;4861036;29;20147;-81
2022/04/16 04:50:50;;;;;;;41.53;28.20;;;7.20;99.90;;;;;;4874922;29;20049;-81
2022/04/16 04:53:15;;;;;;;42.60;28.77;;;7.20;99.90;;;;;;4860030;29;20168;-81
2022/04/16 04:55:41;;;;;;;39.50;27.85;;;7.90;99.90;;;;;;4860377;29;20055;-81
2022/04/16 04:58:07;;;;;;;37.40;26.65;;;7.20;99.90;;;;;;4874964;29;20056;-81
2022/04/16 05:00:32;;;;;;;37.85;27.27;;;7.50;99.90;;;;;;4859180;29;20051;-81
2022/04/16 05:02:58;;;;;;;42.00;26.55;;;7.70;99.90;;;;;;4859785;29;20064;-80
2022/04/16 05:05:23;;;;;;;38.75;27.50;;;7.30;99.90;;;;;;4845156;29;20056;-80
2022/04/16 05:07:49;;;;;;;33.42;22.90;;;7.30;99.90;;;;;;4859164;29;20049;-80
2022/04/16 05:10:16;;;;;;;35.65;23.45;;;7.30;99.90;;;;;;4874880;29;20056;-80
2022/04/16 05:12:41;;;;;;;31.80;22.73;;;7.30;99.90;;;;;;4853840;29;20480;-80
2022/04/16 05:15:08;;;;;;;35.58;23.48;;;7.30;99.90;;;;;;4869145;29;20039;-80
2022/04/16 05:17:37;;;;;;;31.45;21.90;;;7.30;99.90;;;;;;4852580;29;20053;-80
2022/04/16 05:20:06;;;;;;;31.40;21.08;;;7.90;99.90;;;;;;4864699;29;20232;-80
2022/04/16 05:22:32;;;;;;;37.13;21.38;;;7.40;99.90;;;;;;4849178;29;20120;-80
2022/04/16 05:24:57;;;;;;;29.83;20.05;;;7.40;99.90;;;;;;4859399;29;20140;-80
2022/04/16 05:27:23;;;;;;;27.95;20.67;;;7.70;99.90;;;;;;4854907;29;20080;-80
2022/04/16 05:29:56;;;;;;;32.60;21.25;;;7.80;99.90;;;;;;4861804;29;20041;-80
2022/04/16 05:32:23;;;;;;;34.05;21.33;;;7.50;99.90;;;;;;4871499;29;20144;-81
2022/04/16 05:34:49;;;;;;;30.27;20.65;;;7.50;99.90;;;;;;4861174;29;20159;-79
2022/04/16 05:37:14;;;;;;;33.45;22.45;;;8.00;99.90;;;;;;4894947;29;20131;-78
2022/04/16 05:39:40;;;;;;;35.58;23.17;;;7.70;99.90;;;;;;4895201;29;20048;-78
2022/04/16 05:42:06;;;;;;;35.90;23.50;;;8.20;99.90;;;;;;4877251;29;20378;-78
2022/04/16 05:44:33;;;;;;;34.50;23.42;;;7.60;99.90;;;;;;4894360;29;20493;-78
2022/04/16 05:46:58;;;;;;;35.17;23.75;;;8.50;99.90;;;;;;4892187;29;20056;-78
2022/04/16 05:49:24;;;;;;;37.28;22.98;;;7.60;99.90;;;;;;4893516;29;20440;-79
2022/04/16 05:51:50;;;;;;;35.72;23.00;;;7.60;99.90;;;;;;4894084;29;20040;-80
2022/04/16 05:54:16;;;;;;;33.88;23.50;;;7.60;99.90;;;;;;4893219;29;20048;-79
2022/04/16 05:56:41;;;;;;;32.45;22.65;;;7.60;99.90;;;;;;4886916;29;20127;-79
2022/04/16 05:59:07;;;;;;;35.33;22.73;;;8.10;99.90;;;;;;4892869;29;20059;-79
2022/04/16 06:01:33;;;;;;;32.92;21.67;;;7.60;99.90;;;;;;4894611;29;20045;-80
2022/04/16 06:03:59;;;;;;;35.72;21.55;;;7.90;99.90;;;;;;4891577;29;20508;-80
2022/04/16 06:06:24;;;;;;;33.63;22.08;;;7.80;99.90;;;;;;4903966;29;20040;-80
2022/04/16 06:08:51;;;;;;;33.72;22.17;;;7.60;99.90;;;;;;4893924;29;20095;-79
2022/04/16 06:11:18;;;;;;;33.45;21.42;;;7.60;99.90;;;;;;4909314;29;20056;-80
2022/04/16 06:13:44;;;;;;;32.75;21.58;;;7.70;99.90;;;;;;4894836;29;20062;-80
2022/04/16 06:16:10;;;;;;;32.03;20.85;;;7.80;99.90;;;;;;4894292;29;20127;-82
2022/04/16 06:18:36;;;;;;;30.63;19.95;;;8.20;99.90;;;;;;4887713;29;20048;-81
2022/04/16 06:21:02;;;;;;;25.40;17.58;;;8.30;99.90;;;;;;4886106;29;20048;-81
2022/04/16 06:23:28;;;;;;;26.33;16.90;;;8.10;99.90;;;;;;4877274;29;20413;-81
2022/04/16 06:25:53;;;;;;;27.52;17.70;;;8.10;99.90;;;;;;4876018;29;20440;-82
2022/04/16 06:28:19;;;;;;;30.08;18.90;;;8.10;99.90;;;;;;4865525;29;20404;-82
2022/04/16 06:30:44;;;;;;;29.50;19.55;;;8.10;99.90;;;;;;4879235;29;20103;-82
2022/04/16 06:33:10;;;;;;;32.13;19.58;;;8.10;99.90;;;;;;4869576;29;20458;-82
2022/04/16 06:35:36;;;;;;;33.10;19.77;;;8.70;99.90;;;;;;4860513;29;20076;-82
2022/04/16 06:38:01;;;;;;;31.05;19.85;;;8.10;99.90;;;;;;4879121;29;20548;-82
2022/04/16 06:40:29;;;;;;;29.58;19.17;;;8.10;99.90;;;;;;4888790;29;20076;-81
2022/04/16 06:42:54;;;;;;;31.52;18.73;;;8.00;99.90;;;;;;4886299;29;20088;-82
2022/04/16 06:45:20;;;;;;;30.95;19.27;;;8.10;99.90;;;;;;4864649;29;20036;-82
2022/04/16 06:47:46;;;;;;;30.08;18.65;;;8.00;99.90;;;;;;4846928;29;20052;-82
2022/04/16 06:50:11;;;;;;;31.27;19.02;;;8.50;99.90;;;;;;4867028;29;20041;-85
2022/04/16 06:52:37;;;;;;;29.50;18.98;;;8.00;99.90;;;;;;4846717;29;20053;-86
2022/04/16 06:55:05;;;;;;;28.67;18.13;;;8.10;99.90;;;;;;4871482;29;20049;-85
2022/04/16 06:57:31;;;;;;;28.83;18.15;;;8.10;99.90;;;;;;4844105;29;20065;-90
2022/04/16 07:00:03;;;;;;;32.47;17.77;;;8.20;99.90;;;;;;4885713;29;20056;-86
2022/04/16 07:02:28;;;;;;;28.83;18.02;;;8.50;99.90;;;;;;4876871;29;20067;-84
2022/04/16 07:04:54;;;;;;;30.65;16.95;;;8.20;99.90;;;;;;4864195;29;20053;-85
2022/04/16 07:07:20;;;;;;;27.15;16.48;;;8.20;99.90;;;;;;4879061;29;20044;-85
2022/04/16 07:09:51;;;;;;;24.33;16.77;;;8.20;99.90;;;;;;4860139;29;20048;-85
2022/04/16 07:12:20;;;;;;;28.77;16.80;;;8.30;99.90;;;;;;4825108;29;1060955;-84
2022/04/16 07:14:45;;;;;;;28.95;16.35;;;8.90;99.90;;;;;;4860599;29;20405;-85
2022/04/16 07:17:11;;;;;;;26.75;16.98;;;9.00;99.90;;;;;;4861045;29;20049;-86
2022/04/16 07:19:37;;;;;;;27.13;15.95;;;8.50;99.90;;;;;;4860930;29;20046;-87
2022/04/16 07:22:09;;;;;;;23.98;15.85;;;8.50;99.90;;;;;;4861626;29;20477;-85
2022/04/16 07:24:38;;;;;;;25.30;14.57;;;8.50;99.90;;;;;;4861656;29;20056;-86
2022/04/16 07:27:05;;;;;;;19.83;13.23;;;9.50;99.90;;;;;;4860275;29;20047;-86
2022/04/16 07:29:31;;;;;;;21.60;12.40;;;8.70;99.90;;;;;;4876085;29;20135;-86
2022/04/16 07:31:57;;;;;;;19.55;11.63;;;8.70;99.90;;;;;;4861058;29;20132;-86
2022/04/16 07:34:25;;;;;;;19.20;12.82;;;9.60;99.90;;;;;;4861031;29;20092;-86
2022/04/16 07:36:54;;;;;;;19.70;12.52;;;9.10;99.90;;;;;;4876675;29;20508;-84
2022/04/16 07:39:20;;;;;;;20.65;12.23;;;8.90;99.90;;;;;;4876578;29;20055;-86
2022/04/16 07:41:45;;;;;;;20.48;12.35;;;9.00;99.90;;;;;;4876046;29;20139;-86
2022/04/16 07:44:11;;;;;;;18.70;11.40;;;9.90;99.90;;;;;;4859899;29;20484;-86
2022/04/16 07:46:48;;;;;;;19.45;11.18;;;9.70;99.90;;;;;;4861366;29;20044;-86
2022/04/16 07:49:17;;;;;;;22.40;11.65;;;9.10;99.90;;;;;;4860677;29;20801;-86
2022/04/16 07:51:44;;;;;;;19.95;11.07;;;9.10;99.90;;;;;;4876977;29;20045;-85
2022/04/16 07:54:09;;;;;;;17.15;10.18;;;9.20;99.90;;;;;;4860456;29;20060;-84
2022/04/16 07:56:35;;;;;;;16.40;9.88;;;9.20;99.90;;;;;;4860475;29;20076;-85
2022/04/16 07:59:01;;;;;;;15.85;9.63;;;9.20;99.90;;;;;;4859667;29;20115;-85
2022/04/16 08:01:27;;;;;;;14.63;10.18;;;9.30;99.90;;;;;;4861088;29;20109;-86
2022/04/16 08:03:53;;;;;;;14.65;8.50;;;9.30;99.90;;;;;;4875983;29;20048;-86
2022/04/16 08:06:19;;;;;;;13.75;7.43;;;9.50;99.90;;;;;;4876481;29;20553;-86
2022/04/16 08:08:44;;;;;;;16.00;9.00;;;9.40;99.90;;;;;;4860959;29;20057;-86
2022/04/16 08:11:11;;;;;;;15.23;9.55;;;9.50;99.90;;;;;;4860519;29;20063;-85
2022/04/16 08:13:42;;;;;;;14.20;8.30;;;9.60;99.90;;;;;;4876781;29;20120;-85
2022/04/16 08:16:07;;;;;;;15.48;8.63;;;9.50;99.90;;;;;;4858994;29;20044;-86
2022/04/16 08:18:33;;;;;;;14.15;8.35;;;9.60;99.90;;;;;;4876731;29;20056;-86
2022/04/16 08:20:59;;;;;;;12.82;7.60;;;9.60;99.90;;;;;;4863237;29;20044;-86
2022/04/16 08:23:26;;;;;;;13.52;7.53;;;10.00;99.90;;;;;;4864310;29;20052;-86
2022/04/16 08:26:04;;;;;;;11.93;7.07;;;10.10;99.90;;;;;;4863931;29;20132;-87
2022/04/16 08:28:29;;;;;;;11.32;6.60;;;9.80;99.90;;;;;;4865047;29;20417;-87
2022/04/16 08:30:55;;;;;;;10.38;6.30;;;10.60;99.90;;;;;;4862415;29;20052;-87
2022/04/16 08:33:20;;;;;;;10.60;6.35;;;10.20;99.90;;;;;;4879650;29;20091;-87
2022/04/16 08:35:46;;;;;;;10.98;4.72;;;10.10;99.90;;;;;;4879638;29;20044;-86
2022/04/16 08:38:24;;;;;;;8.85;5.18;;;10.20;99.90;;;;;;4864579;29;20067;-86
2022/04/16 08:40:50;;;;;;;9.88;5.22;;;10.50;99.90;;;;;;4879236;29;20048;-86
2022/04/16 08:43:17;;;;;;;7.13;3.83;;;10.60;99.90;;;;;;4879815;29;20040;-86
2022/04/16 08:45:43;;;;;;;7.38;4.28;;;10.70;99.90;;;;;;4863587;29;20539;-86
2022/04/16 08:48:15;;;;;;;11.68;4.75;;;10.50;99.90;;;;;;4861535;29;20064;-86
2022/04/16 08:50:44;;;;;;;8.18;4.18;;;10.40;99.90;;;;;;4864155;29;20129;-86
2022/04/16 08:53:10;;;;;;;9.80;2.92;;;10.40;99.90;;;;;;4879366;29;20583;-86
2022/04/16 08:55:37;;;;;;;5.10;2.15;;;10.90;99.90;;;;;;4863975;29;20048;-87
2022/04/16 08:58:17;;;;;;;3.15;1.40;;;11.10;99.90;;;;;;4878315;29;20080;-86
2022/04/16 09:00:43;;;;;;;4.25;1.60;;;10.70;99.90;;;;;;4863015;29;20052;-86
2022/04/16 09:03:09;;;;;;;5.22;1.70;;;10.90;99.90;;;;;;4878947;29;20037;-85
2022/04/16 09:05:35;;;;;;;5.40;1.70;;;10.90;99.90;;;;;;4878604;29;20139;-86
2022/04/16 09:08:08;;;;;;;6.93;1.70;;;11.00;99.90;;;;;;4859993;29;20052;-86
2022/04/16 09:10:36;;;;;;;5.07;1.45;;;11.20;99.90;;;;;;4845014;29;20581;-86
2022/04/16 09:13:04;;;;;;;3.65;1.48;;;10.90;99.90;;;;;;4875598;29;20052;-86
2022/04/16 09:15:31;;;;;;;2.70;1.17;;;10.90;99.90;;;;;;4875400;29;20060;-86
2022/04/16 09:18:00;;;;;;;5.00;1.25;;;11.00;99.90;;;;;;4860429;29;20484;-86
2022/04/16 09:20:37;;;;;;;3.55;1.00;;;11.10;99.90;;;;;;4859496;29;20057;-85
2022/04/16 09:23:16;;;;;;;3.45;0.70;;;11.10;99.90;;;;;;4875732;29;20132;-86
2022/04/16 09:25:43;;;;;;;2.28;0.80;;;11.30;99.90;;;;;;4860370;29;20490;-85
2022/04/16 09:28:09;;;;;;;3.35;0.82;;;11.70;99.90;;;;;;4874920;29;20048;-85
2022/04/16 09:30:37;;;;;;;4.53;0.90;;;11.40;99.90;;;;;;4859460;29;20732;-86
2022/04/16 09:33:02;;;;;;;2.97;0.82;;;11.60;99.90;;;;;;4874707;29;20128;-85
2022/04/16 09:35:28;;;;;;;10.35;0.80;;;12.30;99.90;;;;;;4859166;29;20136;-85
2022/04/16 09:37:55;;;;;;;1.15;0.47;;;11.90;99.90;;;;;;4859776;29;20057;-85
2022/04/16 09:40:25;;;;;;;2.47;0.60;;;11.70;99.90;;;;;;4874406;29;20504;-85
2022/04/16 09:42:55;;;;;;;2.38;0.70;;;11.80;99.90;;;;;;4875316;29;20045;-85
2022/04/16 09:45:21;;;;;;;2.53;0.68;;;12.20;99.90;;;;;;4859060;29;20106;-86
2022/04/16 09:48:09;;;;;;;2.85;0.85;;;12.00;99.90;;;;;;4874437;29;20049;-86
2022/04/16 09:50:35;;;;;;;3.17;0.70;;;12.00;99.90;;;;;;4844429;29;20080;-86
2022/04/16 09:53:02;;;;;;;3.03;0.77;;;12.00;99.90;;;;;;4859524;29;20503;-86
2022/04/16 09:55:28;;;;;;;2.60;0.55;;;12.00;99.80;;;;;;4874845;29;20585;-86
2022/04/16 09:58:04;;;;;;;4.30;0.52;;;12.00;99.30;;;;;;4865038;29;20521;-86
2022/04/16 10:00:34;;;;;;;2.67;0.88;;;12.10;97.40;;;;;;4877990;29;20052;-86
2022/04/16 10:03:00;;;;;;;0.88;0.40;;;12.30;98.10;;;;;;4877370;29;20064;-86
2022/04/16 10:05:26;;;;;;;1.90;0.60;;;12.20;97.70;;;;;;4863045;29;20037;-86
2022/04/16 10:07:53;;;;;;;0.88;0.47;;;12.20;96.90;;;;;;4862712;29;20059;-86
2022/04/16 10:10:41;;;;;;;14.60;1.00;;;12.50;96.60;;;;;;4861604;29;20036;-86
2022/04/16 10:13:09;;;;;;;1.77;0.80;;;12.30;97.10;;;;;;4877967;29;20063;-87
2022/04/16 10:15:41;;;;;;;8.35;0.75;;;12.40;98.00;;;;;;4877031;29;20052;-87
2022/04/16 10:18:09;;;;;;;3.43;0.50;;;12.80;96.80;;;;;;4862435;29;20135;-86
2022/04/16 10:20:35;;;;;;;2.78;0.65;;;12.50;97.50;;;;;;4862496;29;20296;-86
2022/04/16 10:23:05;;;;;;;1.75;0.50;;;12.60;94.30;;;;;;4862486;29;20048;-86
2022/04/16 10:25:34;;;;;;;2.30;0.55;;;12.60;92.40;;;;;;4863214;29;20048;-86
2022/04/16 10:28:05;;;;;;;7.63;0.80;;;12.60;90.00;;;;;;4877610;29;20133;-86
2022/04/16 10:30:42;;;;;;;2.42;0.70;;;12.70;90.80;;;;;;4861298;29;20560;-85
2022/04/16 10:33:17;;;;;;;4.72;0.80;;;12.70;90.60;;;;;;4861812;29;20085;-85
2022/04/16 10:35:59;;;;;;;3.33;0.70;;;12.80;88.60;;;;;;4861982;29;20092;-86
2022/04/16 10:38:37;;;;;;;3.72;0.98;;;12.80;87.70;;;;;;4861334;29;20058;-87
2022/04/16 10:41:12;;;;;;;2.65;0.55;;;12.90;90.50;;;;;;4862115;29;20040;-85
2022/04/16 10:43:38;;;;;;;2.35;0.80;;;13.20;86.80;;;;;;4877126;29;20207;-87
2022/04/16 10:46:07;;;;;;;1.20;0.50;;;12.90;83.30;;;;;;4860568;29;20516;-86
2022/04/16 10:48:35;;;;;;;3.90;0.40;;;12.90;82.30;;;;;;4878003;29;20131;-86
2022/04/16 10:51:04;;;;;;;1.55;0.55;;;13.00;88.50;;;;;;4875951;29;20041;-87
2022/04/16 10:53:34;;;;;;;4.68;0.70;;;13.20;89.60;;;;;;4862106;29;20524;-86
2022/04/16 10:56:18;;;;;;;2.55;0.60;;;13.20;88.90;;;;;;4861123;29;20095;-86
2022/04/16 10:58:48;;;;;;;4.38;0.60;;;13.40;84.00;;;;;;4861109;29;20052;-87
2022/04/16 11:01:24;;;;;;;2.00;0.60;;;13.70;87.90;;;;;;4861457;29;20063;-86
2022/04/16 11:03:50;;;;;;;1.17;0.40;;;13.60;84.60;;;;;;4876869;29;20135;-86
2022/04/16 11:06:17;;;;;;;1.50;0.60;;;13.60;80.30;;;;;;4876733;29;20461;-87
2022/04/16 11:08:45;;;;;;;1.67;0.65;;;13.70;79.80;;;;;;4862089;29;20393;-86
2022/04/16 11:11:13;;;;;;;2.47;0.50;;;13.70;77.10;;;;;;4861588;29;20465;-86
2022/04/16 11:13:40;;;;;;;2.15;0.80;;;13.70;74.00;;;;;;4861671;29;20096;-87
2022/04/16 11:16:07;;;;;;;3.85;0.75;;;13.80;77.00;;;;;;4860871;29;20052;-86
2022/04/16 11:18:44;;;;;;;3.42;0.77;;;13.80;78.70;;;;;;4876431;29;20048;-86
2022/04/16 11:21:12;;;;;;;2.28;0.73;;;14.00;80.60;;;;;;4877112;29;20108;-87
2022/04/16 11:23:40;;;;;;;3.03;0.60;;;14.00;82.20;;;;;;4860909;29;20048;-86
2022/04/16 11:34:26;;;;;;;5.50;0.63;;;13.90;76.90;;;;;;4857930;29;20045;-87
2022/04/16 11:36:53;;;;;;;5.55;0.95;;;13.90;76.40;;;;;;4857959;29;20060;-87
2022/04/16 11:39:20;;;;;;;2.72;0.70;;;14.00;75.30;;;;;;4843242;29;20055;-87
2022/04/16 11:41:49;;;;;;;3.17;0.80;;;13.90;76.40;;;;;;4857712;29;20045;-87
2022/04/16 11:44:14;;;;;;;3.72;0.70;;;14.00;75.10;;;;;;4842459;29;20821;-86
2022/04/16 11:46:41;;;;;;;3.63;0.63;;;14.10;71.50;;;;;;4857925;29;20055;-85
2022/04/16 11:49:08;;;;;;;4.00;0.60;;;14.20;72.20;;;;;;4858088;29;20402;-86
2022/04/16 11:51:38;;;;;;;5.72;0.60;;;14.20;73.10;;;;;;4844362;29;20055;-87
2022/04/16 11:54:04;;;;;;;1.73;0.60;;;14.30;70.10;;;;;;4857215;29;20413;-87
2022/04/16 11:56:30;;;;;;;5.45;0.70;;;14.50;67.70;;;;;;4862653;29;20041;-87
2022/04/16 11:58:56;;;;;;;2.42;0.70;;;14.40;66.80;;;;;;4861422;29;20049;-87
2022/04/16 12:01:23;;;;;;;2.08;0.60;;;14.50;67.50;;;;;;4862382;29;20131;-87
2022/04/16 12:03:52;;;;;;;2.00;0.70;;;14.50;67.90;;;;;;4846430;29;20532;-88
2022/04/16 12:06:17;;;;;;;6.05;0.90;;;14.70;70.60;;;;;;4861807;29;20482;-88
2022/04/16 12:08:44;;;;;;;1.52;0.50;;;14.80;72.00;;;;;;4862102;29;20055;-87
2022/04/16 12:11:10;;;;;;;4.30;0.70;;;14.80;68.40;;;;;;4846638;29;20068;-87
2022/04/16 12:13:39;;;;;;;2.22;0.50;;;14.80;65.00;;;;;;4862203;29;20105;-87
2022/04/16 12:16:08;;;;;;;1.83;0.60;;;14.80;65.90;;;;;;4845164;29;20645;-87
2022/04/16 12:18:37;;;;;;;3.45;0.88;;;14.70;65.30;;;;;;4846989;29;20049;-86
2022/04/16 12:21:11;;;;;;;3.70;0.90;;;14.80;65.60;;;;;;4845572;29;20132;-87
2022/04/16 12:23:38;;;;;;;2.70;0.80;;;14.80;66.70;;;;;;4846814;29;20453;-86
2022/04/16 12:26:06;;;;;;;5.50;0.80;;;15.00;67.70;;;;;;4846117;29;20049;-87
2022/04/16 12:28:37;;;;;;;2.42;0.68;;;14.80;66.70;;;;;;4846707;29;20068;-87
2022/04/16 12:31:03;;;;;;;2.92;0.70;;;14.90;65.30;;;;;;4844568;29;20045;-87
2022/04/16 12:33:42;;;;;;;3.70;0.70;;;14.90;65.50;;;;;;4861971;29;20183;-87
2022/04/16 12:36:08;;;;;;;1.77;0.60;;;14.90;63.80;;;;;;4845712;29;20504;-87
2022/04/16 12:38:34;;;;;;;1.88;0.80;;;15.20;64.10;;;;;;4861483;29;20117;-87
2022/04/16 12:41:20;;;;;;;3.38;1.05;;;14.90;63.70;;;;;;4860824;29;20045;-87
2022/04/16 12:43:46;;;;;;;2.80;0.98;;;15.00;63.20;;;;;;4845532;29;20132;-87
2022/04/16 12:46:27;;;;;;;4.45;0.68;;;14.90;63.50;;;;;;4861404;29;20088;-86
2022/04/16 12:48:52;;;;;;;2.78;0.73;;;14.90;62.20;;;;;;4861204;29;20084;-87
2022/04/16 12:51:18;;;;;;;4.55;0.88;;;14.90;62.50;;;;;;4861212;29;20434;-87
2022/04/16 12:53:59;;;;;;;3.22;0.80;;;15.00;63.30;;;;;;4861930;29;20482;-87
2022/04/16 12:56:25;;;;;;;3.80;0.50;;;15.00;61.60;;;;;;4861897;29;20057;-87
2022/04/16 12:58:51;;;;;;;2.63;0.63;;;15.00;62.50;;;;;;4859580;29;20127;-88
2022/04/16 13:01:32;;;;;;;4.55;0.68;;;15.00;62.50;;;;;;4862552;29;20056;-89